createdAt,value
2022-09-24T00:00:04.318Z,0.20
2022-09-24T00:03:05.938Z,0.10
2022-09-24T00:06:09.138Z,0.10
2022-09-24T00:09:12.571Z,0.10
2022-09-24T00:12:14.110Z,0.15
2022-09-24T00:15:15.709Z,0.10
2022-09-24T00:18:18.607Z,0.20
2022-09-24T00:21:24.093Z,0.22
2022-09-24T00:24:44.081Z,0.10
2022-09-24T00:27:45.618Z,0.15
2022-09-24T00:30:47.116Z,0.10
2022-09-24T00:33:52.327Z,0.10
2022-09-24T00:36:54.276Z,0.20
2022-09-24T00:39:56.240Z,0.15
2022-09-24T00:42:57.846Z,0.10
2022-09-24T00:46:06.005Z,0.10
2022-09-24T00:49:13.520Z,0.15
2022-09-24T00:52:17.381Z,0.20
2022-09-24T00:55:21.774Z,0.17
2022-09-24T00:58:24.145Z,0.10
2022-09-24T01:01:25.823Z,0.10
2022-09-24T01:04:28.607Z,0.10
2022-09-24T01:07:30.298Z,0.20
2022-09-24T01:10:47.955Z,0.13
2022-09-24T01:14:10.040Z,0.17
2022-09-24T01:17:39.338Z,0.20
2022-09-24T01:20:56.800Z,0.20
2022-09-24T01:24:40.425Z,0.20
2022-09-24T01:28:23.145Z,0.17
2022-09-24T01:31:32.297Z,0.20
2022-09-24T01:34:41.480Z,0.30
2022-09-24T01:37:48.149Z,0.25
2022-09-24T01:40:51.853Z,0.20
2022-09-24T01:43:54.433Z,0.25
2022-09-24T01:46:56.020Z,0.20
2022-09-24T01:49:57.815Z,0.30
2022-09-24T01:53:11.851Z,0.20
2022-09-24T01:56:44.599Z,0.20
2022-09-24T02:00:00.238Z,0.17
2022-09-24T02:03:17.269Z,0.28
2022-09-24T02:06:44.291Z,0.20
2022-09-24T02:09:45.998Z,0.20
2022-09-24T02:12:56.681Z,0.20
2022-09-24T02:16:02.374Z,0.13
2022-09-24T02:19:11.799Z,0.20
2022-09-24T02:22:14.536Z,0.20
2022-09-24T02:25:25.183Z,0.25
2022-09-24T02:28:26.986Z,0.20
2022-09-24T02:31:32.400Z,0.20
2022-09-24T02:34:42.420Z,0.20
2022-09-24T02:37:44.577Z,0.20
2022-09-24T02:40:47.649Z,0.20
2022-09-24T02:43:49.777Z,0.20
2022-09-24T02:46:51.401Z,0.30
2022-09-24T02:49:52.995Z,0.25
2022-09-24T02:52:54.970Z,0.30
2022-09-24T02:55:57.365Z,0.20
2022-09-24T02:59:01.005Z,0.25
2022-09-24T03:02:03.340Z,0.30
2022-09-24T03:05:05.306Z,0.22
2022-09-24T03:08:07.672Z,0.30
2022-09-24T03:11:15.081Z,0.25
2022-09-24T03:14:19.529Z,0.15
2022-09-24T03:17:21.046Z,0.30
2022-09-24T03:20:24.241Z,0.20
2022-09-24T03:23:25.946Z,0.30
2022-09-24T03:26:27.549Z,0.20
2022-09-24T03:29:47.820Z,0.30
2022-09-24T03:32:49.585Z,0.30
2022-09-24T03:35:55.732Z,0.30
2022-09-24T03:38:57.810Z,0.30
2022-09-24T03:41:59.372Z,0.40
2022-09-24T03:45:01.290Z,0.40
2022-09-24T03:48:02.819Z,0.30
2022-09-24T03:51:12.866Z,0.20
2022-09-24T03:54:14.525Z,0.22
2022-09-24T03:57:16.417Z,0.22
2022-09-24T04:00:18.144Z,0.22
2022-09-24T04:03:21.475Z,0.20
2022-09-24T04:06:26.068Z,0.22
2022-09-24T04:09:27.756Z,0.20
2022-09-24T04:12:29.717Z,0.20
2022-09-24T04:15:31.430Z,0.25
2022-09-24T04:18:38.292Z,0.30
2022-09-24T04:21:40.713Z,0.20
2022-09-24T04:24:42.212Z,0.20
2022-09-24T04:27:44.941Z,0.20
2022-09-24T04:30:46.429Z,0.30
2022-09-24T04:33:47.980Z,0.30
2022-09-24T04:36:49.630Z,0.20
2022-09-24T04:39:51.526Z,0.40
2022-09-24T04:42:53.561Z,0.20
2022-09-24T04:45:58.807Z,0.20
2022-09-24T04:49:01.154Z,0.20
2022-09-24T04:52:03.062Z,0.20
2022-09-24T04:55:05.504Z,0.20
2022-09-24T04:58:07.357Z,0.30
2022-09-24T05:01:09.496Z,0.10
2022-09-24T05:04:11.093Z,0.20
2022-09-24T05:07:13.049Z,0.20
2022-09-24T05:10:14.647Z,0.30
2022-09-24T05:13:16.325Z,0.20
2022-09-24T05:16:17.891Z,0.20
2022-09-24T05:19:20.114Z,0.20
2022-09-24T05:22:21.787Z,0.30
2022-09-24T05:25:24.029Z,0.20
2022-09-24T05:28:25.652Z,0.20
2022-09-24T05:31:27.915Z,0.30
2022-09-24T05:34:30.260Z,0.20
2022-09-24T05:37:32.635Z,0.25
2022-09-24T05:40:49.748Z,0.20
2022-09-24T05:43:51.482Z,0.30
2022-09-24T05:46:53.432Z,0.20
2022-09-24T05:49:55.039Z,0.20
2022-09-24T05:52:57.350Z,0.20
2022-09-24T05:55:59.017Z,0.30
2022-09-24T05:59:01.078Z,0.20
2022-09-24T06:02:03.042Z,0.30
2022-09-24T06:05:05.057Z,0.22
2022-09-24T06:08:08.690Z,0.50
2022-09-24T06:11:10.956Z,0.30
2022-09-24T06:14:13.113Z,0.20
2022-09-24T06:17:15.652Z,0.10
2022-09-24T06:20:18.296Z,0.20
2022-09-24T06:23:23.836Z,0.20
2022-09-24T06:26:26.503Z,0.20
2022-09-24T06:29:28.630Z,0.25
2022-09-24T06:32:30.977Z,0.20
2022-09-24T06:35:39.960Z,0.20
2022-09-24T06:38:41.888Z,0.30
2022-09-24T06:41:43.569Z,0.20
2022-09-24T06:44:45.148Z,0.20
2022-09-24T06:47:55.258Z,0.40
2022-09-24T06:50:56.898Z,0.30
2022-09-24T06:53:58.496Z,0.30
2022-09-24T06:57:00.118Z,0.22
2022-09-24T07:00:01.898Z,0.20
2022-09-24T07:03:03.711Z,0.30
2022-09-24T07:06:06.716Z,0.20
2022-09-24T07:09:08.278Z,0.30
2022-09-24T07:12:10.381Z,0.30
2022-09-24T07:15:12.249Z,0.30
2022-09-24T07:18:13.975Z,0.20
2022-09-24T07:21:15.505Z,0.40
2022-09-24T07:24:17.203Z,0.20
2022-09-24T07:27:21.217Z,0.20
2022-09-24T07:30:22.756Z,0.20
2022-09-24T07:33:24.354Z,0.40
2022-09-24T07:36:26.005Z,0.25
2022-09-24T07:39:27.720Z,0.30
2022-09-24T07:42:30.134Z,0.30
2022-09-24T07:45:33.462Z,0.30
2022-09-24T07:48:35.155Z,0.20
2022-09-24T07:51:36.724Z,0.25
2022-09-24T07:54:38.636Z,0.20
2022-09-24T07:57:40.314Z,0.30
2022-09-24T08:00:42.291Z,0.20
2022-09-24T08:03:45.113Z,0.30
2022-09-24T08:06:47.669Z,0.30
2022-09-24T08:09:49.538Z,0.30
2022-09-24T08:12:51.522Z,0.22
2022-09-24T08:15:59.753Z,0.28
2022-09-24T08:19:01.389Z,0.20
2022-09-24T08:22:05.353Z,0.20
2022-09-24T08:25:07.869Z,0.30
2022-09-24T08:28:13.217Z,0.28
2022-09-24T08:31:14.870Z,0.30
2022-09-24T08:34:16.512Z,0.38
2022-09-24T08:37:18.309Z,0.28
2022-09-24T08:40:26.465Z,0.20
2022-09-24T08:43:52.973Z,0.30
2022-09-24T08:47:17.576Z,0.20
2022-09-24T08:50:23.360Z,0.30
2022-09-24T08:54:03.720Z,0.30
2022-09-24T08:57:13.119Z,0.30
2022-09-24T09:00:15.820Z,0.20
2022-09-24T09:03:49.855Z,0.30
2022-09-24T09:07:10.126Z,0.30
2022-09-24T09:10:27.918Z,0.30
2022-09-24T09:13:50.016Z,0.30
2022-09-24T09:17:06.773Z,0.25
2022-09-24T09:20:17.657Z,0.20
2022-09-24T09:23:29.820Z,0.20
2022-09-24T09:26:31.800Z,0.28
2022-09-24T09:29:34.556Z,0.22
2022-09-24T09:32:45.403Z,0.30
2022-09-24T09:36:02.905Z,0.30
2022-09-24T09:39:30.801Z,0.30
2022-09-24T09:42:36.322Z,0.28
2022-09-24T09:46:11.714Z,0.20
2022-09-24T09:49:14.293Z,0.30
2022-09-24T09:52:20.933Z,0.20
2022-09-24T09:55:33.106Z,0.28
2022-09-24T09:58:37.618Z,0.30
2022-09-24T10:01:42.114Z,0.20
2022-09-24T10:04:43.949Z,0.20
2022-09-24T10:07:45.693Z,0.25
2022-09-24T10:10:59.380Z,0.20
2022-09-24T10:14:05.316Z,0.20
2022-09-24T10:17:07.067Z,0.28
2022-09-24T10:20:17.687Z,0.20
2022-09-24T10:23:22.986Z,0.20
2022-09-24T10:26:36.983Z,0.35
2022-09-24T10:29:59.574Z,0.30
2022-09-24T10:33:03.873Z,0.30
2022-09-24T10:36:08.545Z,0.32
2022-09-24T10:39:15.416Z,0.50
2022-09-24T10:42:24.935Z,0.50
2022-09-24T10:45:38.711Z,0.30
2022-09-24T10:48:54.125Z,0.30
2022-09-24T10:52:14.147Z,0.20
2022-09-24T10:55:34.288Z,0.20
2022-09-24T10:58:35.837Z,0.40
2022-09-24T11:01:49.670Z,0.20
2022-09-24T11:04:56.391Z,0.30
2022-09-24T11:08:22.057Z,0.30
2022-09-24T11:11:41.580Z,0.20
2022-09-24T11:14:55.429Z,0.30
2022-09-24T11:18:14.466Z,0.25
2022-09-24T11:21:21.678Z,0.40
2022-09-24T11:24:45.883Z,0.35
2022-09-24T11:28:14.116Z,0.30
2022-09-24T11:31:37.685Z,0.30
2022-09-24T11:34:54.619Z,0.25
2022-09-24T11:38:14.423Z,0.32
2022-09-24T11:41:58.420Z,0.40
2022-09-24T11:45:27.317Z,0.30
2022-09-24T11:48:50.569Z,0.38
2022-09-24T11:51:58.092Z,0.20
2022-09-24T11:55:23.898Z,0.30
2022-09-24T11:58:30.857Z,0.30
2022-09-24T12:01:37.046Z,0.35
2022-09-24T12:04:53.741Z,0.20
2022-09-24T12:07:58.314Z,0.30
2022-09-24T12:11:05.830Z,0.30
2022-09-24T12:14:28.827Z,0.22
2022-09-24T12:17:41.114Z,0.25
2022-09-24T12:20:51.949Z,0.30
2022-09-24T12:24:02.933Z,0.20
2022-09-24T12:27:13.806Z,0.32
2022-09-24T12:30:49.541Z,0.30
2022-09-24T12:34:03.101Z,0.30
2022-09-24T12:37:10.240Z,0.30
2022-09-24T12:40:12.094Z,0.30
2022-09-24T12:43:26.427Z,0.40
2022-09-24T12:46:39.976Z,0.30
2022-09-24T12:49:41.817Z,0.30
2022-09-24T12:52:43.604Z,0.22
2022-09-24T12:55:45.791Z,0.30
2022-09-24T12:58:49.512Z,0.30
2022-09-24T13:01:51.341Z,0.40
2022-09-24T13:05:01.984Z,0.32
2022-09-24T13:08:22.932Z,0.30
2022-09-24T13:11:37.490Z,0.30
2022-09-24T13:14:43.471Z,0.30
2022-09-24T13:17:46.678Z,0.38
2022-09-24T13:21:00.276Z,0.32
2022-09-24T13:24:11.357Z,0.30
2022-09-24T13:27:45.294Z,0.28
2022-09-24T13:30:53.759Z,0.38
2022-09-24T13:34:10.362Z,0.32
2022-09-24T13:37:21.560Z,0.40
2022-09-24T13:40:28.775Z,0.30
2022-09-24T13:43:47.874Z,0.30
2022-09-24T13:46:57.361Z,0.50
2022-09-24T13:50:20.940Z,0.20
2022-09-24T13:53:49.655Z,0.30
2022-09-24T13:57:11.632Z,0.28
2022-09-24T14:00:17.105Z,0.30
2022-09-24T14:03:55.919Z,0.20
2022-09-24T14:07:02.171Z,0.30
2022-09-24T14:10:27.038Z,0.30
2022-09-24T14:13:28.776Z,0.28
2022-09-24T14:16:30.510Z,0.30
2022-09-24T14:19:34.596Z,0.25
2022-09-24T14:22:41.539Z,0.20
2022-09-24T14:25:43.611Z,0.20
2022-09-24T14:28:45.708Z,0.20
2022-09-24T14:31:57.333Z,0.32
2022-09-24T14:35:32.541Z,0.25
2022-09-24T14:38:44.444Z,0.20
2022-09-24T14:41:46.179Z,0.30
2022-09-24T14:44:49.533Z,0.30
2022-09-24T14:48:24.987Z,0.20
2022-09-24T14:51:29.256Z,0.22
2022-09-24T14:54:40.321Z,0.22
2022-09-24T14:57:48.060Z,0.30
2022-09-24T15:00:55.529Z,0.40
2022-09-24T15:04:07.952Z,0.30
2022-09-24T15:07:18.586Z,0.32
2022-09-24T15:10:22.327Z,0.20
2022-09-24T15:13:36.069Z,0.25
2022-09-24T15:16:37.769Z,0.28
2022-09-24T15:19:43.205Z,0.30
2022-09-24T15:22:46.727Z,0.30
2022-09-24T15:25:48.550Z,0.30
2022-09-24T15:28:50.850Z,0.30
2022-09-24T15:31:54.118Z,0.30
2022-09-24T15:34:56.684Z,0.30
2022-09-24T15:37:58.649Z,0.30
2022-09-24T15:41:00.503Z,0.38
2022-09-24T15:44:02.129Z,0.20
2022-09-24T15:47:03.837Z,0.30
2022-09-24T15:50:05.849Z,0.30
2022-09-24T15:53:17.252Z,0.50
2022-09-24T15:56:19.614Z,0.35
2022-09-24T15:59:22.475Z,0.30
2022-09-24T16:02:29.174Z,0.52
2022-09-24T16:05:30.869Z,0.40
2022-09-24T16:08:32.404Z,0.30
2022-09-24T16:11:34.081Z,0.30
2022-09-24T16:14:35.685Z,0.30
2022-09-24T16:17:38.616Z,0.40
2022-09-24T16:20:40.705Z,0.40
2022-09-24T16:23:42.409Z,0.35
2022-09-24T16:26:44.184Z,0.40
2022-09-24T16:29:45.809Z,0.50
2022-09-24T16:32:47.464Z,0.40
2022-09-24T16:35:49.324Z,0.50
2022-09-24T16:38:51.059Z,0.40
2022-09-24T16:41:53.013Z,0.40
2022-09-24T16:44:54.581Z,0.55
2022-09-24T16:47:56.228Z,0.52
2022-09-24T16:51:09.573Z,0.40
2022-09-24T16:54:13.144Z,0.30
2022-09-24T16:57:14.870Z,0.30
2022-09-24T17:00:16.705Z,0.40
2022-09-24T17:03:18.299Z,0.35
2022-09-24T17:06:23.411Z,0.40
2022-09-24T17:09:43.549Z,0.38
2022-09-24T17:12:48.288Z,0.30
2022-09-24T17:15:49.942Z,0.40
2022-09-24T17:18:54.551Z,0.40
2022-09-24T17:21:56.295Z,0.30
2022-09-24T17:24:58.069Z,0.25
2022-09-24T17:27:59.741Z,0.25
2022-09-24T17:31:02.124Z,0.20
2022-09-24T17:34:10.239Z,0.30
2022-09-24T17:37:12.076Z,0.25
2022-09-24T17:40:19.943Z,0.20
2022-09-24T17:43:25.078Z,0.30
2022-09-24T17:46:32.066Z,0.20
2022-09-24T17:49:34.613Z,0.22
2022-09-24T17:52:36.128Z,0.25
2022-09-24T17:55:38.172Z,0.20
2022-09-24T17:58:42.282Z,0.25
2022-09-24T18:01:45.023Z,0.30
2022-09-24T18:04:46.784Z,0.30
2022-09-24T18:07:48.531Z,0.20
2022-09-24T18:11:03.954Z,0.20
2022-09-24T18:14:05.710Z,0.20
2022-09-24T18:17:08.281Z,0.30
2022-09-24T18:20:10.115Z,0.20
2022-09-24T18:23:12.761Z,0.10
2022-09-24T18:26:20.099Z,0.10
2022-09-24T18:29:22.032Z,0.10
2022-09-24T18:32:24.398Z,0.13
2022-09-24T18:35:26.115Z,0.10
2022-09-24T18:38:29.990Z,0.10
2022-09-24T18:41:32.049Z,0.10
2022-09-24T18:44:33.891Z,0.10
2022-09-24T18:47:38.237Z,0.10
2022-09-24T18:50:44.057Z,0.10
2022-09-24T18:53:51.580Z,0.10
2022-09-24T18:56:53.138Z,0.10
2022-09-24T18:59:54.694Z,0.10
2022-09-24T19:02:56.579Z,0.10
2022-09-24T19:06:03.570Z,0.10
2022-09-24T19:09:06.100Z,0.10
2022-09-24T19:12:08.832Z,0.10
2022-09-24T19:15:10.500Z,0.10
2022-09-24T19:18:14.571Z,0.10
2022-09-24T19:21:16.591Z,0.20
2022-09-24T19:24:21.173Z,0.10
2022-09-24T19:27:22.776Z,0.10
2022-09-24T19:30:24.422Z,0.10
2022-09-24T19:33:26.157Z,0.10
2022-09-24T19:36:27.692Z,0.10
2022-09-24T19:39:29.256Z,0.10
2022-09-24T19:42:31.617Z,0.20
2022-09-24T19:45:33.213Z,0.20
2022-09-24T19:48:39.753Z,0.25
2022-09-24T19:51:41.422Z,0.20
2022-09-24T19:54:44.573Z,0.10
2022-09-24T19:57:46.193Z,0.13
2022-09-24T20:00:47.869Z,0.10
2022-09-24T20:03:50.036Z,0.20
2022-09-24T20:06:51.717Z,0.20
2022-09-24T20:09:53.367Z,0.20
2022-09-24T20:12:55.055Z,0.20
2022-09-24T20:16:04.057Z,0.20
2022-09-24T20:19:05.639Z,0.30
2022-09-24T20:22:08.870Z,0.20
2022-09-24T20:25:11.719Z,0.10
2022-09-24T20:28:16.454Z,0.20
2022-09-24T20:31:20.921Z,0.20
2022-09-24T20:34:24.888Z,0.20
2022-09-24T20:37:26.484Z,0.20
2022-09-24T20:40:28.101Z,0.17
2022-09-24T20:43:32.416Z,0.20
2022-09-24T20:46:34.115Z,0.10
2022-09-24T20:49:35.745Z,0.10
2022-09-24T20:52:37.403Z,0.10
2022-09-24T20:55:39.328Z,0.10
2022-09-24T20:58:41.575Z,0.10
2022-09-24T21:01:43.362Z,0.10
2022-09-24T21:04:45.044Z,0.10
2022-09-24T21:07:46.643Z,0.10
2022-09-24T21:10:48.229Z,0.17
2022-09-24T21:13:52.584Z,0.10
2022-09-24T21:16:55.180Z,0.10
2022-09-24T21:19:56.831Z,0.10
2022-09-24T21:23:00.154Z,0.17
2022-09-24T21:26:09.936Z,0.10
2022-09-24T21:29:12.971Z,0.10
2022-09-24T21:32:17.419Z,0.10
2022-09-24T21:35:19.018Z,0.20
2022-09-24T21:38:20.576Z,0.10
2022-09-24T21:41:24.352Z,0.10
2022-09-24T21:44:26.098Z,0.10
2022-09-24T21:47:27.661Z,0.20
2022-09-24T21:50:29.792Z,0.10
2022-09-24T21:53:32.380Z,0.20
2022-09-24T21:56:35.708Z,0.10
2022-09-24T21:59:56.031Z,0.10
2022-09-24T22:02:57.662Z,0.15
2022-09-24T22:06:03.453Z,0.10
2022-09-24T22:09:07.157Z,0.10
2022-09-24T22:12:09.146Z,0.10
2022-09-24T22:15:11.233Z,0.20
2022-09-24T22:18:13.083Z,0.10
2022-09-24T22:21:15.018Z,0.10
2022-09-24T22:24:16.596Z,0.10
2022-09-24T22:27:19.517Z,0.10
2022-09-24T22:30:21.143Z,0.15
2022-09-24T22:33:42.539Z,0.20
2022-09-24T22:36:44.093Z,0.10
2022-09-24T22:39:45.743Z,0.10
2022-09-24T22:42:47.458Z,0.40
2022-09-24T22:45:49.028Z,0.10
2022-09-24T22:48:50.570Z,0.10
2022-09-24T22:51:52.170Z,0.10
2022-09-24T22:54:53.765Z,0.00
2022-09-24T22:57:55.915Z,0.10
2022-09-24T23:01:24.394Z,0.10
2022-09-24T23:04:26.240Z,0.10
2022-09-24T23:07:27.899Z,0.10
2022-09-24T23:10:30.075Z,0.10
2022-09-24T23:13:31.633Z,0.10
2022-09-24T23:16:36.274Z,0.10
2022-09-24T23:19:49.935Z,0.10
2022-09-24T23:22:51.463Z,0.17
2022-09-24T23:25:53.380Z,0.10
2022-09-24T23:28:56.593Z,0.10
2022-09-24T23:31:58.185Z,0.10
2022-09-24T23:34:59.743Z,0.10
2022-09-24T23:38:01.358Z,0.10
2022-09-24T23:41:04.644Z,0.10
2022-09-24T23:44:06.781Z,0.10
2022-09-24T23:47:08.456Z,0.10
2022-09-24T23:50:10.121Z,0.05
2022-09-24T23:53:12.683Z,0.10
2022-09-24T23:56:15.292Z,0.10
2022-09-24T23:59:16.824Z,0.10
